Terminal Aerodrome Forecast
Issued by NWS

Home | Current Version | Previous Version | Text Only | Print | Product List | Glossary On
Versions: 1 2 3 4 5 6 7 8 9 10 11 12 13 14 15
000
FTUS44 KLIX 221720
TAFHDC
TAF
KHDC 221720Z 2218/2318 33010KT P6SM VCSH SCT025 BKN045
     FM230000 31004KT P6SM SCT015 OVC070
     FM230500 32004KT P6SM BKN008 BKN060
     FM230800 32006KT P6SM FEW010 SCT040=

USA.gov is the U.S. government's official web portal to all federal, state and local government web resources and services.